Shady Lake, New Jersey
Current Conditions -  °F | °C
As of 12:53 PM on Friday 24 Oct 2014 (Local Time) from KFWN Reporting Station
Broken Clouds Broken Clouds  
Wind Chill: 63°   Ceiling: 4200
Heat Index: 63°   Visibility: 10mi
Dew Point: 43°   Wind: 10mph
Humidity: 48%   Direction: 330°NNW
Pressure: 29.81"   Gusts: 21mph
Location:  41.0879°N, 74.3771°W
Report Text: KFWN 241653Z AUTO 33009G18KT 10SM BKN042 BKN060 17/06 A2981 RMK AO2 SLP093 T01720061
Loading
Personal Weather Stations






























Interactive Weather Map
Tropical Storm Tracking
New forecast layout! Learn more

10-Day Weather Forecast

Advertisements
Track Severe Weather on mobile